Map

Track Data

SID SEASON NUMBER BASIN SUBBASIN NAME ISO_TIME NATURE LAT LON WMO_WIND WMO_PRES WMO_AGENCY TRACK_TYPE DIST2LAND LANDFALL IFLAG USA_AGENCY USA_ATCF_ID USA_LAT USA_LON USA_RECORD USA_STATUS USA_WIND USA_PRES USA_SSHS USA_R34_NE USA_R34_SE USA_R34_SW USA_R34_NW USA_R50_NE USA_R50_SE USA_R50_SW USA_R50_NW USA_R64_NE USA_R64_SE USA_R64_SW USA_R64_NW USA_POCI USA_ROCI USA_RMW USA_EYE TOKYO_LAT TOKYO_LON TOKYO_GRADE TOKYO_WIND TOKYO_PRES TOKYO_R50_DIR TOKYO_R50_LONG TOKYO_R50_SHORT TOKYO_R30_DIR TOKYO_R30_LONG TOKYO_R30_SHORT TOKYO_LAND CMA_LAT CMA_LON CMA_CAT CMA_WIND CMA_PRES HKO_LAT HKO_LON HKO_CAT HKO_WIND HKO_PRES NEWDELHI_LAT NEWDELHI_LON NEWDELHI_GRADE NEWDELHI_WIND NEWDELHI_PRES NEWDELHI_CI NEWDELHI_DP NEWDELHI_POCI REUNION_LAT REUNION_LON REUNION_TYPE REUNION_WIND REUNION_PRES REUNION_TNUM REUNION_CI REUNION_RMW REUNION_R34_NE REUNION_R34_SE REUNION_R34_SW REUNION_R34_NW REUNION_R50_NE REUNION_R50_SE REUNION_R50_SW REUNION_R50_NW REUNION_R64_NE REUNION_R64_SE REUNION_R64_SW REUNION_R64_NW BOM_LAT BOM_LON BOM_TYPE BOM_WIND BOM_PRES BOM_TNUM BOM_CI BOM_RMW BOM_R34_NE BOM_R34_SE BOM_R34_SW BOM_R34_NW BOM_R50_NE BOM_R50_SE BOM_R50_SW BOM_R50_NW BOM_R64_NE BOM_R64_SE BOM_R64_SW BOM_R64_NW BOM_ROCI BOM_POCI BOM_EYE BOM_POS_METHOD BOM_PRES_METHOD NADI_LAT NADI_LON NADI_CAT NADI_WIND NADI_PRES WELLINGTON_LAT WELLINGTON_LON WELLINGTON_WIND WELLINGTON_PRES DS824_LAT DS824_LON DS824_STAGE DS824_WIND DS824_PRES TD9636_LAT TD9636_LON TD9636_STAGE TD9636_WIND TD9636_PRES TD9635_LAT TD9635_LON TD9635_WIND TD9635_PRES TD9635_ROCI NEUMANN_LAT NEUMANN_LON NEUMANN_CLASS NEUMANN_WIND NEUMANN_PRES MLC_LAT MLC_LON MLC_CLASS MLC_WIND MLC_PRES USA_GUST BOM_GUST BOM_GUST_PER REUNION_GUST REUNION_GUST_PER USA_SEAHGT USA_SEARAD_NE USA_SEARAD_SE USA_SEARAD_SW USA_SEARAD_NW STORM_SPEED STORM_DIR
1954193N14265 1954 31 EP MM NOT_NAMED 1954-07-12 00:00:00 TS 13.8000 -95.1000 75 hurdat_epa main 243 238 O________OO___ hurdat_epa EP031954 13.8000 -95.1000 HU 75 1 13.8000 -95.1000 TC 75 13.8000 -95.1000 4 6 250
1954193N14265 1954 31 EP MM NOT_NAMED 1954-07-12 03:00:00 TS 13.6951 -95.3976 main 239 236 P________PP___ EP031954 13.6925 -95.3876 HU 75 1 13.6925 -95.3876 TC 75 13.7051 -95.4377 4 6 252
1954193N14265 1954 31 EP MM NOT_NAMED 1954-07-12 06:00:00 TS 13.6036 -95.7141 75 hurdat_epa main 241 233 O________OP___ hurdat_epa EP031954 13.6000 -95.7000 HU 75 1 13.6000 -95.7000 TC 75 13.6180 -95.7703 4 7 256
1954193N14265 1954 31 EP MM NOT_NAMED 1954-07-12 09:00:00 TS 13.5374 -96.0585 main 241 236 P________PP___ EP031954 13.5350 -96.0500 HU 75 1 13.5350 -96.0500 TC 75 13.5469 -96.0926 4 7 261
1954193N14265 1954 31 EP MM NOT_NAMED 1954-07-12 12:00:00 TS 13.5000 -96.4000 75 hurdat_epa main 236 235 O________OO___ hurdat_epa EP031954 13.5000 -96.4000 HU 75 1 13.5000 -96.4000 TC 75 13.5000 -96.4000 4 6 265
1954193N14265 1954 31 EP MM NOT_NAMED 1954-07-12 15:00:00 TS 13.4847 -96.7042 main 235 235 P________PP___ EP031954 13.4849 -96.7075 HU 75 1 13.4849 -96.7075 TC 75 13.4838 -96.6909 4 6 270
1954193N14265 1954 31 EP MM NOT_NAMED 1954-07-12 18:00:00 TS 13.4994 -96.9955 75 hurdat_epa main 239 239 O________OP___ hurdat_epa EP031954 13.5000 -97.0000 HU 75 1 13.5000 -97.0000 TC 75 13.4971 -96.9775 4 6 275
1954193N14265 1954 31 EP MM NOT_NAMED 1954-07-12 21:00:00 TS 13.5353 -97.2831 main 246 239 P________PP___ EP031954 13.5349 -97.2850 HU 75 1 13.5349 -97.2850 TC 75 13.5369 -97.2754 4 6 280
1954193N14265 1954 31 EP MM NOT_NAMED 1954-07-13 00:00:00 TS 13.6000 -97.6000 75 hurdat_epa main 248 248 O________OO___ hurdat_epa EP031954 13.6000 -97.6000 HU 75 1 13.6000 -97.6000 TC 75 13.6000 -97.6000 4 7 283
1954193N14265 1954 31 EP MM NOT_NAMED 1954-07-13 03:00:00 TS 13.6879 -97.9709 main 258 250 P________PP___ EP031954 13.6925 -97.9850 HU 75 1 13.6925 -97.9850 TC 75 13.6695 -97.9147 4 8 284
1954193N14265 1954 31 EP MM NOT_NAMED 1954-07-13 06:00:00 TS 13.7922 -98.3731 75 hurdat_epa main 254 250 O________OP___ hurdat_epa EP031954 13.8000 -98.4000 HU 75 1 13.8000 -98.4000 TC 75 13.7612 -98.2656 4 8 285
1954193N14265 1954 31 EP MM NOT_NAMED 1954-07-13 09:00:00 TS 13.8881 -98.7349 main 254 254 P________PP___ EP031954 13.8921 -98.7477 HU 75 1 13.8921 -98.7477 TC 75 13.8723 -98.6837 4 8 284
1954193N14265 1954 31 EP MM NOT_NAMED 1954-07-13 12:00:00 TS 14.0000 -99.2000 75 hurdat_epa main 265 260 O________OO___ hurdat_epa EP031954 14.0000 -99.2000 HU 75 1 14.0000 -99.2000 TC 75 14.0000 -99.2000 4 12 283
1954193N14265 1954 31 EP MM NOT_NAMED 1954-07-13 15:00:00 TS 14.1383 -99.8952 main 283 278 P________PP___ EP031954 14.1427 -99.8975 HU 75 1 14.1427 -99.8975 TC 75 14.1207 -99.8859 4 15 281
1954193N14265 1954 31 EP MM NOT_NAMED 1954-07-13 18:00:00 TS 14.2914 -100.693 75 hurdat_epa main 289 289 O________OP___ hurdat_epa EP031954 14.3000 -100.700 HU 75 1 14.3000 -100.700 TC 75 14.2569 -100.663 4 16 281
1954193N14265 1954 31 EP MM NOT_NAMED 1954-07-13 21:00:00 TS 14.4309 -101.476 main 320 313 P________PP___ EP031954 14.4350 -101.480 HU 75 1 14.4350 -101.480 TC 75 14.4144 -101.458 4 15 282
1954193N14265 1954 31 EP MM NOT_NAMED 1954-07-14 00:00:00 TS 14.6000 -102.200 75 hurdat_epa main 324 322 O________OO___ hurdat_epa EP031954 14.6000 -102.200 HU 75 1 14.6000 -102.200 TC 75 14.6000 -102.200 4 13 287
1954193N14265 1954 31 EP MM NOT_NAMED 1954-07-14 03:00:00 TS 14.8310 -102.790 main 333 330 P________PP___ EP031954 14.8347 -102.788 HU 75 1 14.8347 -102.788 TC 75 14.8161 -102.802 4 12 295
1954193N14265 1954 31 EP MM NOT_NAMED 1954-07-14 06:00:00 TS 15.0922 -103.308 75 hurdat_epa main 331 324 O________OP___ hurdat_epa EP031954 15.1000 -103.300 HU 75 1 15.1000 -103.300 TC 75 15.0612 -103.340 4 11 297
1954193N14265 1954 31 EP MM NOT_NAMED 1954-07-14 09:00:00 TS 15.3451 -103.819 main 327 309 P________PP___ EP031954 15.3499 -103.815 HU 75 1 15.3499 -103.815 TC 75 15.3258 -103.833 4 11 298
1954193N14265 1954 31 EP MM NOT_NAMED 1954-07-14 12:00:00 TS 15.6000 -104.300 75 hurdat_epa main 313 303 O________OO___ hurdat_epa EP031954 15.6000 -104.300 HU 75 1 15.6000 -104.300 TC 75 15.6000 -104.300 4 10 299
1954193N14265 1954 31 EP MM NOT_NAMED 1954-07-14 15:00:00 TS 15.8425 -104.761 main 312 299 P________PP___ EP031954 15.8424 -104.758 HU 75 1 15.8424 -104.758 TC 75 15.8430 -104.776 4 10 300
1954193N14265 1954 31 EP MM NOT_NAMED 1954-07-14 18:00:00 TS 16.0994 -105.206 75 hurdat_epa main 305 302 O________OP___ hurdat_epa EP031954 16.1000 -105.200 HU 75 1 16.1000 -105.200 TC 75 16.0969 -105.231 4 10 302
1954193N14265 1954 31 EP MM NOT_NAMED 1954-07-14 21:00:00 TS 16.3774 -105.654 main 315 311 P________PP___ EP031954 16.3774 -105.650 HU 75 1 16.3774 -105.650 TC 75 16.3774 -105.670 4 11 305
1954193N14265 1954 31 EP MM NOT_NAMED 1954-07-15 00:00:00 TS 16.7000 -106.100 75 hurdat_epa main 311 295 O________OO___ hurdat_epa EP031954 16.7000 -106.100 HU 75 1 16.7000 -106.100 TC 75 16.7000 -106.100 4 11 309
1954193N14265 1954 31 EP MM NOT_NAMED 1954-07-15 03:00:00 TS 17.0759 -106.556 main 302 299 P________PP___ EP031954 17.0775 -106.558 HU 75 1 17.0775 -106.558 TC 75 17.0696 -106.549 4 12 313
1954193N14265 1954 31 EP MM NOT_NAMED 1954-07-15 06:00:00 TS 17.4965 -106.998 75 hurdat_epa main 299 291 O________OP___ hurdat_epa EP031954 17.5000 -107.000 HU 75 1 17.5000 -107.000 TC 75 17.4824 -106.988 4 12 316
1954193N14265 1954 31 EP MM NOT_NAMED 1954-07-15 09:00:00 TS 17.9337 -107.414 main 299 291 P________PP___ EP031954 17.9349 -107.415 HU 75 1 17.9349 -107.415 TC 75 17.9291 -107.408 4 12 320
1954193N14265 1954 31 EP MM NOT_NAMED 1954-07-15 12:00:00 TS 18.4000 -107.800 75 hurdat_epa main 300 294 O________OO___ hurdat_epa EP031954 18.4000 -107.800 HU 75 1 18.4000 -107.800 TC 75 18.4000 -107.800 4 12 323
1954193N14265 1954 31 EP MM NOT_NAMED 1954-07-15 15:00:00 TS 18.8904 -108.164 main 308 304 P________PP___ EP031954 18.8924 -108.165 HU 75 1 18.8924 -108.165 TC 75 18.8821 -108.158 4 12 326
1954193N14265 1954 31 EP MM NOT_NAMED 1954-07-15 18:00:00 TS 19.3969 -108.498 75 hurdat_epa main 313 309 O________OP___ hurdat_epa EP031954 19.4000 -108.500 HU 75 1 19.4000 -108.500 TC 75 19.3845 -108.488 4 12 329
1954193N14265 1954 31 EP MM NOT_NAMED 1954-07-15 21:00:00 TS 19.9049 -108.806 main 328 288 P________PP___ EP031954 19.9074 -108.808 HU 75 1 19.9074 -108.808 TC 75 19.8947 -108.799 4 12 331
1954193N14265 1954 31 EP MM NOT_NAMED 1954-07-16 00:00:00 TS 20.4000 -109.100 75 hurdat_epa main 288 238 O________OO___ hurdat_epa EP031954 20.4000 -109.100 HU 75 1 20.4000 -109.100 TC 75 20.4000 -109.100 4 11 330
1954193N14265 1954 31 EP MM NOT_NAMED 1954-07-16 03:00:00 TS 20.8513 -109.393 main 227 179 P________PP___ EP031954 20.8499 -109.400 HU 75 1 20.8499 -109.400 TC 75 20.8569 -109.365 4 11 329
1954193N14265 1954 31 EP MM NOT_NAMED 1954-07-16 06:00:00 TS 21.3022 -109.686 75 hurdat_epa main 179 122 O________OP___ hurdat_epa EP031954 21.3000 -109.700 HU 75 1 21.3000 -109.700 TC 75 21.3111 -109.629 4 11 331
1954193N14265 1954 31 EP MM NOT_NAMED 1954-07-16 09:00:00 TS 21.7787 -109.956 main 122 73 P________PP___ EP031954 21.7772 -109.963 HU 75 1 21.7772 -109.963 TC 75 21.7848 -109.928 4 12 330
1954193N14265 1954 31 EP MM NOT_NAMED 1954-07-16 12:00:00 TS 22.3000 -110.300 75 hurdat_epa main 73 60 O________OO___ hurdat_epa EP031954 22.3000 -110.300 HU 75 1 22.3000 -110.300 TC 75 22.3000 -110.300 4 14 324
1954193N14265 1954 31 EP MM NOT_NAMED 1954-07-16 15:00:00 TS 22.8740 -110.817 main 79 73 P________PP___ EP031954 22.8776 -110.805 HU 75 1 22.8776 -110.805 TC 75 22.8595 -110.866 4 16 319
1954193N14265 1954 31 EP MM NOT_NAMED 1954-07-16 18:00:00 TS 23.4926 -111.420 75 hurdat_epa main 73 49 O________OP___ hurdat_epa EP031954 23.5000 -111.400 HU 75 1 23.5000 -111.400 TC 75 23.4630 -111.498 4 17 318
1954193N14265 1954 31 EP MM NOT_NAMED 1954-07-16 21:00:00 TS 24.1242 -112.057 main 54 30 P________PP___ EP031954 24.1278 -112.045 HU 75 1 24.1278 -112.045 TC 75 24.1097 -112.107 4 17 321
1954193N14265 1954 31 EP MM NOT_NAMED 1954-07-17 00:00:00 TS 24.8000 -112.600 75 hurdat_epa main 40 40 O________OO___ hurdat_epa EP031954 24.8000 -112.600 HU 75 1 24.8000 -112.600 TC 75 24.8000 -112.600 4 16 330
1954193N14265 1954 31 EP MM NOT_NAMED 1954-07-17 03:00:00 TS 25.5285 -112.934 main 80 29 P________PP___ EP031954 25.5272 -112.940 HU 75 1 25.5272 -112.940 TC 75 25.5338 -112.910 4 16 344
1954193N14265 1954 31 EP MM NOT_NAMED 1954-07-17 06:00:00 TS 26.3005 -113.092 75 hurdat_epa main 29 0 O________OP___ hurdat_epa EP031954 26.3000 -113.100 HU 75 1 26.3000 -113.100 TC 75 26.3027 -113.062 4 16 354
1954193N14265 1954 31 EP MM NOT_NAMED 1954-07-17 09:00:00 TS 27.0952 -113.128 main 0 0 P________PP___ EP031954 27.0951 -113.133 HU 75 1 27.0951 -113.133 TC 75 27.0954 -113.108 4 16 0
1954193N14265 1954 31 EP MM NOT_NAMED 1954-07-17 12:00:00 TS 27.9000 -113.100 75 hurdat_epa main 0 O________OO___ hurdat_epa EP031954 27.9000 -113.100 HU 75 1 27.9000 -113.100 TC 75 27.9000 -113.100 4 16 1

About IBTrACS Database

This database is a web-friendly format of International Best Track Archive for Climate Stewardship (IBTrACS), a global best track data archive curated by NOAA dating back to 1842.

Updated: 2021-10-08